Time;durP1;ratioP1;P1;durP2;ratioP2;P2;SDS_P1;SDS_P2;PMS_P1;PMS_P2;Temp;Humidity;BMP_temperature;BMP_pressure;BME280_temperature;BME280_humidity;BME280_pressure;Samples;Min_cycle;Max_cycle;Signal;HPM_P1;HPM_P2
2023/06/27 00:01:04;;;;;;;4.78;1.60;;;;;;;-148.88;78.00;-17125.47;5034797;28;20025;-70
2023/06/27 00:03:31;;;;;;;3.00;1.42;;;;;;;-148.88;76.90;-17125.47;5034697;28;20021;-70
2023/06/27 00:06:00;;;;;;;7.45;1.60;;;;;;;-148.88;77.31;-17125.47;5034556;28;20071;-70
2023/06/27 00:08:27;;;;;;;5.47;1.60;;;;;;;-148.88;76.75;-17125.47;5034456;28;20018;-70
2023/06/27 00:10:53;;;;;;;3.67;1.40;;;;;;;-148.88;77.56;-17125.47;5016740;28;20036;-70
2023/06/27 00:13:20;;;;;;;3.05;1.40;;;;;;;-148.88;77.38;-17125.47;5034458;28;20032;-70
2023/06/27 00:15:48;;;;;;;6.45;1.35;;;;;;;-148.88;78.05;-17125.47;5034682;28;20072;-69
2023/06/27 00:18:17;;;;;;;3.85;1.67;;;;;;;-148.88;79.26;-17125.47;5016465;28;20032;-69
2023/06/27 00:20:43;;;;;;;3.90;1.42;;;;;;;-148.88;78.86;-17125.47;5034324;28;20067;-70
2023/06/27 00:23:24;;;;;;;4.13;1.73;;;;;;;-148.88;79.91;-17125.47;5034333;28;20029;-69
2023/06/27 00:25:50;;;;;;;8.32;1.95;;;;;;;-148.88;80.39;-17125.47;5034299;28;20025;-69
2023/06/27 00:28:15;;;;;;;4.50;1.63;;;;;;;-148.88;79.45;-17125.47;5016128;28;20024;-70
2023/06/27 00:30:41;;;;;;;4.38;1.63;;;;;;;-148.88;79.58;-17125.47;5016230;28;20025;-71
2023/06/27 00:33:09;;;;;;;3.85;1.52;;;;;;;-148.88;79.29;-17125.47;5016899;28;20450;-71
2023/06/27 00:35:34;;;;;;;4.90;2.05;;;;;;;-148.88;79.51;-17125.47;5034654;28;20025;-70
2023/06/27 00:38:02;;;;;;;3.95;1.67;;;;;;;-148.88;79.66;-17125.47;5034203;28;20025;-70
2023/06/27 00:40:30;;;;;;;3.42;1.70;;;;;;;-148.88;80.29;-17125.47;5034014;28;20542;-70
2023/06/27 00:42:55;;;;;;;5.90;1.98;;;;;;;-148.88;80.87;-17125.47;5033977;28;20391;-70
2023/06/27 00:45:23;;;;;;;5.20;1.75;;;;;;;-148.88;81.25;-17125.47;5034080;28;20057;-70
2023/06/27 00:47:50;;;;;;;3.58;1.77;;;;;;;-148.88;81.38;-17125.47;5017124;28;20033;-70
2023/06/27 00:50:16;;;;;;;5.30;2.00;;;;;;;-148.88;81.90;-17125.47;5033803;28;20022;-70
2023/06/27 00:52:42;;;;;;;5.22;2.00;;;;;;;-148.88;81.66;-17125.47;5033825;28;20024;-70
2023/06/27 00:55:08;;;;;;;3.95;1.88;;;;;;;-148.88;80.96;-17125.47;5015864;28;20040;-70
2023/06/27 00:57:34;;;;;;;6.18;2.05;;;;;;;-148.88;82.10;-17125.47;5033755;28;20072;-70
2023/06/27 01:00:00;;;;;;;4.20;1.73;;;;;;;-148.88;81.53;-17125.47;5033507;28;20017;-70
2023/06/27 01:02:25;;;;;;;5.70;1.90;;;;;;;-148.88;81.69;-17125.47;5033480;28;20395;-70
2023/06/27 01:04:54;;;;;;;5.63;2.15;;;;;;;-148.88;81.89;-17125.47;5033955;28;20387;-70
2023/06/27 01:07:40;;;;;;;4.93;2.15;;;;;;;-148.88;82.45;-17125.47;5033786;28;20029;-69
2023/06/27 01:10:23;;;;;;;3.92;1.73;;;;;;;-148.88;82.17;-17125.47;5033907;28;20013;-70
2023/06/27 01:12:57;;;;;;;5.45;2.15;;;;;;;-148.88;83.75;-17125.47;5033897;28;20021;-70
2023/06/27 01:15:24;;;;;;;4.70;1.85;;;;;;;-148.88;83.21;-17125.47;5033382;28;20039;-70
2023/06/27 01:17:50;;;;;;;5.68;1.77;;;;;;;-148.88;83.48;-17125.47;5033458;28;20115;-69
2023/06/27 01:20:18;;;;;;;5.35;1.80;;;;;;;-148.88;83.55;-17125.47;5033125;28;20025;-70
2023/06/27 01:22:51;;;;;;;4.25;1.85;;;;;;;-148.88;84.39;-17125.47;5033134;28;20079;-71
2023/06/27 01:25:17;;;;;;;4.72;2.03;;;;;;;-148.88;84.19;-17125.47;5015466;28;20064;-70
2023/06/27 01:27:42;;;;;;;3.88;1.92;;;;;;;-148.88;84.75;-17125.47;5032997;28;20059;-70
2023/06/27 01:30:08;;;;;;;7.13;2.20;;;;;;;-148.88;85.19;-17125.47;5033008;28;20048;-70
2023/06/27 01:32:52;;;;;;;4.50;2.25;;;;;;;-148.88;84.48;-17125.47;5015181;28;20029;-70
2023/06/27 01:35:31;;;;;;;5.80;1.98;;;;;;;-148.88;84.65;-17125.47;5033010;28;20025;-69
2023/06/27 01:38:04;;;;;;;6.05;1.80;;;;;;;-148.88;85.27;-17125.47;5033213;28;20033;-70
2023/06/27 01:40:36;;;;;;;5.07;2.35;;;;;;;-148.88;85.29;-17125.47;5033118;28;20029;-71
2023/06/27 01:43:06;;;;;;;4.00;1.85;;;;;;;-148.88;86.31;-17125.47;5015219;28;20029;-70
2023/06/27 01:45:32;;;;;;;4.82;1.95;;;;;;;-148.88;86.67;-17125.47;5033026;28;20053;-70
2023/06/27 01:47:58;;;;;;;6.38;2.33;;;;;;;-148.88;86.84;-17125.47;5034091;28;20030;-73
2023/06/27 01:50:24;;;;;;;4.03;2.22;;;;;;;-148.88;87.55;-17125.47;5034680;28;20072;-70
2023/06/27 01:52:49;;;;;;;7.32;2.25;;;;;;;-148.88;87.89;-17125.47;5032882;28;20021;-70
2023/06/27 01:55:15;;;;;;;5.13;2.35;;;;;;;-148.88;88.87;-17125.47;5033027;28;20407;-71
2023/06/27 01:57:40;;;;;;;4.68;2.33;;;;;;;-148.88;89.57;-17125.47;5015306;28;20053;-70
2023/06/27 02:00:07;;;;;;;4.50;2.13;;;;;;;-148.88;89.92;-17125.47;5032812;28;20116;-70
2023/06/27 02:02:33;;;;;;;6.65;2.65;;;;;;;-148.88;90.28;-17125.47;5014850;28;20025;-70
2023/06/27 02:04:58;;;;;;;5.68;2.88;;;;;;;-148.88;90.28;-17125.47;5032910;28;20032;-69
2023/06/27 02:07:23;;;;;;;8.20;2.65;;;;;;;-148.88;90.82;-17125.47;5032826;28;20036;-69
2023/06/27 02:09:49;;;;;;;7.05;2.60;;;;;;;-148.88;91.18;-17125.47;5032741;28;20018;-70
2023/06/27 02:12:15;;;;;;;5.40;2.25;;;;;;;-148.88;92.06;-17125.47;5032746;28;20019;-69
2023/06/27 02:14:40;;;;;;;6.57;2.55;;;;;;;-148.88;91.88;-17125.47;5032761;28;20029;-70
2023/06/27 02:17:06;;;;;;;6.47;2.42;;;;;;;-148.88;92.05;-17125.47;5032510;28;20372;-70
2023/06/27 02:19:31;;;;;;;7.13;2.42;;;;;;;-148.88;92.19;-17125.47;5032468;28;20025;-70
2023/06/27 02:21:57;;;;;;;4.55;2.30;;;;;;;-148.88;92.39;-17125.47;5032478;28;20113;-69
2023/06/27 02:24:22;;;;;;;5.30;2.17;;;;;;;-148.88;92.58;-17125.47;5032452;28;20053;-69
2023/06/27 02:26:48;;;;;;;4.72;2.22;;;;;;;-148.88;93.06;-17125.47;5032563;28;20037;-69
2023/06/27 02:29:13;;;;;;;7.80;2.60;;;;;;;-148.88;93.23;-17125.47;5032498;28;20029;-70
2023/06/27 02:31:38;;;;;;;5.18;2.35;;;;;;;-148.88;93.44;-17125.47;5032409;28;20364;-69
2023/06/27 02:34:04;;;;;;;7.43;2.55;;;;;;;-148.88;93.75;-17125.47;5032371;28;20052;-69
2023/06/27 02:36:29;;;;;;;5.93;2.20;;;;;;;-148.88;93.87;-17125.47;5032415;28;20491;-69
2023/06/27 02:38:55;;;;;;;6.32;2.33;;;;;;;-148.88;93.39;-17125.47;5032301;28;20021;-69
2023/06/27 02:41:24;;;;;;;5.32;2.38;;;;;;;-148.88;93.92;-17125.47;5032264;28;20029;-69
2023/06/27 02:43:50;;;;;;;5.30;2.20;;;;;;;-148.88;94.56;-17125.47;5032266;28;20479;-69
2023/06/27 02:46:15;;;;;;;7.15;2.58;;;;;;;-148.88;94.54;-17125.47;5032244;28;20033;-69
2023/06/27 02:48:41;;;;;;;5.75;2.17;;;;;;;-148.88;94.73;-17125.47;5032265;28;20022;-69
2023/06/27 02:51:06;;;;;;;7.72;2.83;;;;;;;-148.88;95.14;-17125.47;5032139;28;20372;-70
2023/06/27 02:53:31;;;;;;;6.18;2.35;;;;;;;-148.88;95.31;-17125.47;5042727;22;20042;-83
2023/06/27 02:56:07;;;;;;;6.55;2.60;;;;;;;-148.88;95.40;-17125.47;5019219;28;20037;-83
2023/06/27 02:58:33;;;;;;;6.20;2.55;;;;;;;-148.88;95.79;-17125.47;5019004;28;20434;-83
2023/06/27 03:00:59;;;;;;;5.47;2.40;;;;;;;-148.88;95.91;-17125.47;5036575;28;20029;-84
2023/06/27 03:03:25;;;;;;;8.70;3.00;;;;;;;-148.88;95.95;-17125.47;5018734;28;20028;-83
2023/06/27 03:05:50;;;;;;;5.80;2.40;;;;;;;-148.88;95.63;-17125.47;5019158;28;20488;-84
2023/06/27 03:08:16;;;;;;;7.60;2.65;;;;;;;-148.88;95.75;-17125.47;5019182;28;20025;-83
2023/06/27 03:10:42;;;;;;;6.00;2.58;;;;;;;-148.88;96.28;-17125.47;5037721;28;20071;-84
2023/06/27 03:13:11;;;;;;;5.63;3.17;;;;;;;-148.88;96.53;-17125.47;5020108;28;20029;-84
2023/06/27 03:15:36;;;;;;;6.15;2.78;;;;;;;-148.88;96.28;-17125.47;5018977;28;20025;-83
2023/06/27 03:18:01;;;;;;;6.47;3.08;;;;;;;-148.88;96.51;-17125.47;5036613;28;20387;-84
2023/06/27 03:20:27;;;;;;;5.40;2.88;;;;;;;-148.88;96.50;-17125.47;5018742;28;20053;-84
2023/06/27 03:22:52;;;;;;;6.00;2.55;;;;;;;-148.88;96.83;-17125.47;5018536;28;20032;-84
2023/06/27 03:25:18;;;;;;;5.82;3.10;;;;;;;-148.88;96.84;-17125.47;5018453;28;20017;-84
2023/06/27 03:27:43;;;;;;;7.75;2.80;;;;;;;-148.88;97.29;-17125.47;5018467;28;20026;-84
2023/06/27 03:30:09;;;;;;;6.22;3.10;;;;;;;-148.88;97.24;-17125.47;5018241;28;20116;-84
2023/06/27 03:32:34;;;;;;;4.68;2.80;;;;;;;-148.88;97.30;-17125.47;5018211;28;20029;-84
2023/06/27 03:35:00;;;;;;;8.60;3.65;;;;;;;-148.88;96.88;-17125.47;5035983;28;20021;-83
2023/06/27 03:37:26;;;;;;;9.60;3.50;;;;;;;-148.88;96.96;-17125.47;5018522;28;20027;-84
2023/06/27 03:39:52;;;;;;;7.32;3.50;;;;;;;-148.88;97.09;-17125.47;5018121;28;20025;-84
2023/06/27 03:42:17;;;;;;;8.75;3.30;;;;;;;-148.88;96.95;-17125.47;5018161;28;20049;-84
2023/06/27 03:44:42;;;;;;;8.70;3.83;;;;;;;-148.88;98.44;-17125.47;5036113;28;20437;-84
2023/06/27 03:47:08;;;;;;;5.88;3.05;;;;;;;-148.88;98.82;-17125.47;5018529;28;20424;-82
2023/06/27 03:49:33;;;;;;;8.45;3.58;;;;;;;-148.88;98.14;-17125.47;5018279;28;20050;-83
2023/06/27 03:51:59;;;;;;;7.82;3.58;;;;;;;-148.88;98.43;-17125.47;5020525;28;20017;-82
2023/06/27 03:54:25;;;;;;;6.45;2.83;;;;;;;-148.88;98.36;-17125.47;5020002;28;20075;-82
2023/06/27 03:56:50;;;;;;;8.93;3.53;;;;;;;-148.88;98.52;-17125.47;5018386;28;20515;-82
2023/06/27 03:59:15;;;;;;;7.28;3.30;;;;;;;-148.88;98.87;-17125.47;5035601;28;20045;-82
2023/06/27 04:01:44;;;;;;;7.32;3.58;;;;;;;-148.88;99.52;-17125.47;5035613;28;20095;-82
2023/06/27 04:04:09;;;;;;;5.72;2.95;;;;;;;-148.88;99.70;-17125.47;5016573;28;20059;-82
2023/06/27 04:06:34;;;;;;;5.85;3.30;;;;;;;-148.88;99.83;-17125.47;5017819;28;20021;-82
2023/06/27 04:09:03;;;;;;;6.85;3.20;;;;;;;-148.88;99.75;-17125.47;5019531;28;20018;-83
2023/06/27 04:11:28;;;;;;;8.52;3.28;;;;;;;-148.88;100.00;-17125.47;5019956;28;20033;-84
2023/06/27 04:13:56;;;;;;;7.00;3.63;;;;;;;-148.88;100.00;-17125.47;5018805;28;20026;-84
2023/06/27 04:16:22;;;;;;;6.72;3.72;;;;;;;-148.88;100.00;-17125.47;5017646;28;20127;-84
2023/06/27 04:18:47;;;;;;;7.03;3.65;;;;;;;-148.88;100.00;-17125.47;5017597;28;20495;-85
2023/06/27 04:21:13;;;;;;;5.72;3.50;;;;;;;-148.88;100.00;-17125.47;5035504;28;20033;-83
2023/06/27 04:23:38;;;;;;;7.93;4.03;;;;;;;-148.88;100.00;-17125.47;5018432;28;20025;-83
2023/06/27 04:26:07;;;;;;;5.82;3.92;;;;;;;-148.88;100.00;-17125.47;5035504;28;20100;-83
2023/06/27 04:28:33;;;;;;;7.35;4.20;;;;;;;-148.88;100.00;-17125.47;5017395;28;20033;-83
2023/06/27 04:31:00;;;;;;;7.00;3.83;;;;;;;-148.88;100.00;-17125.47;5035685;28;20028;-83
2023/06/27 04:33:28;;;;;;;6.85;3.70;;;;;;;-148.88;100.00;-17125.47;5035260;28;20060;-83
2023/06/27 04:36:00;;;;;;;5.80;3.88;;;;;;;-148.88;100.00;-17125.47;5035811;28;20021;-81
2023/06/27 04:38:27;;;;;;;6.88;4.13;;;;;;;-148.88;100.00;-17125.47;5034648;28;20396;-84
2023/06/27 04:40:55;;;;;;;6.10;4.15;;;;;;;-148.88;100.00;-17125.47;5034546;28;20029;-82
2023/06/27 04:43:20;;;;;;;8.50;4.32;;;;;;;-148.88;100.00;-17125.47;5034500;28;20044;-81
2023/06/27 04:45:45;;;;;;;7.78;4.00;;;;;;;-148.88;100.00;-17125.47;5017704;28;20364;-82
2023/06/27 04:48:11;;;;;;;6.70;4.50;;;;;;;-148.88;100.00;-17125.47;5017088;28;20052;-83
2023/06/27 04:50:45;;;;;;;10.15;4.85;;;;;;;-148.88;100.00;-17125.47;5016808;28;20021;-83
2023/06/27 04:53:11;;;;;;;6.43;4.40;;;;;;;-148.88;100.00;-17125.47;5017135;28;20068;-83
2023/06/27 04:55:45;;;;;;;7.43;4.22;;;;;;;-148.88;100.00;-17125.47;5017082;28;20029;-83
2023/06/27 04:58:13;;;;;;;6.13;3.92;;;;;;;-148.88;100.00;-17125.47;5017431;28;20021;-83
2023/06/27 05:00:44;;;;;;;8.07;4.47;;;;;;;-148.88;100.00;-17125.47;5017089;28;20026;-83
2023/06/27 05:03:10;;;;;;;6.20;4.03;;;;;;;-148.88;100.00;-17125.47;5017656;28;20531;-83
2023/06/27 05:05:36;;;;;;;8.98;4.55;;;;;;;-148.88;100.00;-17125.47;5017974;28;20094;-83
2023/06/27 05:08:02;;;;;;;8.07;4.30;;;;;;;-148.88;100.00;-17125.47;5035374;28;20399;-83
2023/06/27 05:10:28;;;;;;;9.02;4.57;;;;;;;-148.88;100.00;-17125.47;5017953;28;20021;-84
2023/06/27 05:12:54;;;;;;;10.57;4.20;;;;;;;-148.88;100.00;-17125.47;5036038;28;20026;-84
2023/06/27 05:15:22;;;;;;;7.82;4.35;;;;;;;-148.88;100.00;-17125.47;5034175;28;20392;-84
2023/06/27 05:18:06;;;;;;;8.07;4.43;;;;;;;-148.88;100.00;-17125.47;5033854;28;20444;-84
2023/06/27 05:20:31;;;;;;;8.18;4.75;;;;;;;-148.88;100.00;-17125.47;5016068;28;20030;-83
2023/06/27 05:23:04;;;;;;;6.75;4.28;;;;;;;-148.88;100.00;-17125.47;5017141;28;20075;-84
2023/06/27 05:25:40;;;;;;;8.50;4.50;;;;;;;-148.88;100.00;-17125.47;5018304;28;20034;-84
2023/06/27 05:28:05;;;;;;;9.43;4.65;;;;;;;-148.88;100.00;-17125.47;5017474;28;20060;-84
2023/06/27 05:30:31;;;;;;;8.95;4.90;;;;;;;-148.88;99.44;-17125.47;5036031;28;20057;-84
2023/06/27 05:33:03;;;;;;;9.18;4.60;;;;;;;-148.88;99.47;-17125.47;5017638;28;20035;-84
2023/06/27 05:35:28;;;;;;;6.78;4.50;;;;;;;-148.88;99.01;-17125.47;5017339;28;20025;-84
2023/06/27 05:37:54;;;;;;;10.20;4.70;;;;;;;-148.88;98.29;-17125.47;5017185;28;20383;-83
2023/06/27 05:43:41;;;;;;;9.32;5.22;;;;;;;-148.88;97.46;-17125.47;5047896;22;20048;-71
2023/06/27 05:46:07;;;;;;;10.45;5.22;;;;;;;-148.88;96.66;-17125.47;5053331;28;20045;-71
2023/06/27 05:48:32;;;;;;;10.88;4.93;;;;;;;-148.88;96.45;-17125.47;5053331;28;20021;-70
2023/06/27 05:50:57;;;;;;;10.10;4.43;;;;;;;-148.88;96.53;-17125.47;5052975;28;20020;-70
2023/06/27 05:53:23;;;;;;;7.22;4.72;;;;;;;-148.88;96.71;-17125.47;5053472;28;20025;-70
2023/06/27 05:55:48;;;;;;;6.88;4.65;;;;;;;-148.88;96.80;-17125.47;5052949;28;20481;-70
2023/06/27 05:58:13;;;;;;;9.02;4.47;;;;;;;-148.88;96.57;-17125.47;5052862;28;20021;-70
2023/06/27 06:00:39;;;;;;;7.03;4.32;;;;;;;-148.88;97.55;-17125.47;5052718;28;20025;-70
2023/06/27 06:03:04;;;;;;;9.45;4.43;;;;;;;-148.88;96.61;-17125.47;5053442;28;20391;-70
2023/06/27 06:05:29;;;;;;;8.60;4.25;;;;;;;-148.88;96.66;-17125.47;5034925;28;20474;-70
2023/06/27 06:07:55;;;;;;;10.60;4.90;;;;;;;-148.88;97.07;-17125.47;5052797;28;20070;-70
2023/06/27 06:10:21;;;;;;;6.45;4.45;;;;;;;-148.88;97.20;-17125.47;5052818;28;20052;-71
2023/06/27 06:12:47;;;;;;;9.75;4.70;;;;;;;-148.88;96.86;-17125.47;5052860;28;20048;-70
2023/06/27 06:15:13;;;;;;;9.52;4.90;;;;;;;-148.88;96.47;-17125.47;5052961;28;20107;-70
2023/06/27 06:17:38;;;;;;;9.02;4.50;;;;;;;-148.88;95.54;-17125.47;5053065;28;20070;-71
2023/06/27 06:20:09;;;;;;;8.13;4.35;;;;;;;-148.88;95.19;-17125.47;5053299;28;20024;-70
2023/06/27 06:22:35;;;;;;;7.85;4.50;;;;;;;-148.88;94.48;-17125.47;5053502;28;20025;-71
2023/06/27 06:25:00;;;;;;;11.15;4.13;;;;;;;-148.88;94.21;-17125.47;5035168;28;20024;-70
2023/06/27 06:27:26;;;;;;;12.13;4.57;;;;;;;-148.88;94.58;-17125.47;5054383;28;20383;-71
2023/06/27 06:29:51;;;;;;;9.32;4.22;;;;;;;-148.88;94.31;-17125.47;5056842;28;20052;-71
2023/06/27 06:32:16;;;;;;;8.63;4.13;;;;;;;-148.88;94.69;-17125.47;5056549;28;20079;-70
2023/06/27 06:34:42;;;;;;;11.55;4.38;;;;;;;-148.88;93.38;-17125.47;5056787;28;20395;-71
2023/06/27 06:37:07;;;;;;;7.28;4.47;;;;;;;-148.88;93.89;-17125.47;5056441;28;20028;-71
2023/06/27 06:39:33;;;;;;;10.05;4.38;;;;;;;-148.88;93.74;-17125.47;5038536;28;20491;-71
2023/06/27 06:41:58;;;;;;;8.45;4.45;;;;;;;-148.88;94.37;-17125.47;5038480;28;20036;-70
2023/06/27 06:44:24;;;;;;;10.60;4.68;;;;;;;-148.88;92.61;-17125.47;5056562;28;20107;-71
2023/06/27 06:46:49;;;;;;;11.40;4.72;;;;;;;-148.88;93.10;-17125.47;5056786;28;20103;-71
2023/06/27 06:49:15;;;;;;;10.38;4.10;;;;;;;-148.88;90.95;-17125.47;5056664;28;20025;-71
2023/06/27 06:51:40;;;;;;;7.47;4.03;;;;;;;-148.88;88.92;-17125.47;5056907;28;20048;-70
2023/06/27 06:54:05;;;;;;;7.80;3.63;;;;;;;-148.88;91.09;-17125.47;5057466;28;20052;-71
2023/06/27 06:56:31;;;;;;;8.73;4.10;;;;;;;-148.88;89.63;-17125.47;5058203;28;20033;-72
2023/06/27 06:58:56;;;;;;;8.45;3.47;;;;;;;-148.88;88.84;-17125.47;5040088;28;20479;-71
2023/06/27 07:01:22;;;;;;;7.10;3.88;;;;;;;-148.88;88.75;-17125.47;5057453;28;20040;-71
2023/06/27 07:03:48;;;;;;;6.65;3.83;;;;;;;-148.88;89.58;-17125.47;5038944;28;20473;-71
2023/06/27 07:06:14;;;;;;;8.13;3.90;;;;;;;-148.88;87.75;-17125.47;5056753;28;20100;-71
2023/06/27 07:08:39;;;;;;;6.35;3.90;;;;;;;-148.88;87.52;-17125.47;5056152;28;20056;-71
2023/06/27 07:11:04;;;;;;;8.73;3.42;;;;;;;-148.88;86.74;-17125.47;5055864;28;20096;-71
2023/06/27 07:13:30;;;;;;;8.90;3.63;;;;;;;-148.88;84.46;-17125.47;5055725;28;20065;-71
2023/06/27 07:15:55;;;;;;;7.30;3.08;;;;;;;-148.88;85.84;-17125.47;5055777;28;20096;-71
2023/06/27 07:18:20;;;;;;;8.07;3.33;;;;;;;-148.88;84.67;-17125.47;5055715;28;20024;-71
2023/06/27 07:20:46;;;;;;;5.70;3.10;;;;;;;-148.88;81.59;-17125.47;5055697;28;20021;-71
2023/06/27 07:23:11;;;;;;;7.13;3.10;;;;;;;-148.88;80.35;-17125.47;5055794;28;20445;-71
2023/06/27 07:25:38;;;;;;;5.47;3.20;;;;;;;-148.88;79.61;-17125.47;5055785;28;20429;-71
2023/06/27 07:28:04;;;;;;;6.75;3.22;;;;;;;-148.88;79.41;-17125.47;5038191;28;20094;-71
2023/06/27 07:30:29;;;;;;;7.20;3.13;;;;;;;-148.88;83.69;-17125.47;5055857;28;20052;-70
2023/06/27 07:32:55;;;;;;;8.05;3.15;;;;;;;-148.88;79.40;-17125.47;5056029;28;20017;-71
2023/06/27 07:35:20;;;;;;;6.47;3.17;;;;;;;-148.88;79.24;-17125.47;5056965;28;20436;-71
2023/06/27 07:37:45;;;;;;;7.30;2.90;;;;;;;-148.88;79.83;-17125.47;5055876;28;20053;-72
2023/06/27 07:40:11;;;;;;;10.65;3.58;;;;;;;-148.88;80.69;-17125.47;5055884;28;20066;-71
2023/06/27 07:42:36;;;;;;;8.15;3.45;;;;;;;-148.88;80.47;-17125.47;5055426;28;20044;-71
2023/06/27 07:45:02;;;;;;;5.35;3.00;;;;;;;-148.88;78.50;-17125.47;5055272;28;20040;-71
2023/06/27 07:47:27;;;;;;;7.88;3.00;;;;;;;-148.88;78.28;-17125.47;5055580;28;20398;-71
2023/06/27 07:49:54;;;;;;;7.03;3.17;;;;;;;-148.88;78.94;-17125.47;5055093;28;20021;-71
2023/06/27 07:52:19;;;;;;;7.13;3.00;;;;;;;-148.88;79.08;-17125.47;5054926;28;20035;-71
2023/06/27 07:54:45;;;;;;;7.28;2.72;;;;;;;-148.88;80.85;-17125.47;5037035;28;20108;-71
2023/06/27 07:57:10;;;;;;;7.00;3.45;;;;;;;-148.88;80.08;-17125.47;5054909;28;20484;-71
2023/06/27 07:59:35;;;;;;;6.03;2.40;;;;;;;-148.88;79.61;-17125.47;5054874;28;20535;-71
2023/06/27 08:02:01;;;;;;;6.75;2.03;;;;;;;-148.88;78.51;-17125.47;5054773;28;20055;-71
2023/06/27 08:04:26;;;;;;;6.53;2.17;;;;;;;-148.88;72.07;-17125.47;5054960;28;20029;-71
2023/06/27 08:06:53;;;;;;;5.88;1.92;;;;;;;-148.88;73.34;-17125.47;5055264;28;20052;-71
2023/06/27 08:09:20;;;;;;;5.40;2.08;;;;;;;-148.88;70.56;-17125.47;5037216;28;20025;-71
2023/06/27 08:11:45;;;;;;;5.28;2.20;;;;;;;-148.88;68.98;-17125.47;5055499;28;20070;-71
2023/06/27 08:14:10;;;;;;;6.18;1.90;;;;;;;-148.88;67.49;-17125.47;5055200;28;20421;-71
2023/06/27 08:16:36;;;;;;;3.78;1.80;;;;;;;-148.88;65.21;-17125.47;5055056;28;20017;-71
2023/06/27 08:19:01;;;;;;;5.60;1.95;;;;;;;-148.88;64.16;-17125.47;5054453;28;20485;-71
2023/06/27 08:21:27;;;;;;;4.30;1.48;;;;;;;-148.88;63.96;-17125.47;5054458;28;20435;-71
2023/06/27 08:23:52;;;;;;;4.15;1.75;;;;;;;-148.88;62.65;-17125.47;5054337;28;20021;-71
2023/06/27 08:26:18;;;;;;;7.45;1.70;;;;;;;-148.88;61.21;-17125.47;5054342;28;20025;-71
2023/06/27 08:28:44;;;;;;;6.57;1.80;;;;;;;-148.88;60.61;-17125.47;5036435;28;20433;-71
2023/06/27 08:31:13;;;;;;;5.13;1.60;;;;;;;-148.88;60.19;-17125.47;5054526;28;20490;-71
2023/06/27 08:33:39;;;;;;;4.75;1.48;;;;;;;-148.88;63.72;-17125.47;5054196;28;20108;-71
2023/06/27 08:36:07;;;;;;;5.93;1.55;;;;;;;-148.88;61.40;-17125.47;5054164;28;20025;-71
2023/06/27 08:38:33;;;;;;;5.05;1.48;;;;;;;-148.88;60.85;-17125.47;5054206;28;20021;-71
2023/06/27 08:41:00;;;;;;;5.63;1.80;;;;;;;-148.88;63.40;-17125.47;5054233;28;20035;-71
2023/06/27 08:43:26;;;;;;;3.35;1.35;;;;;;;-148.88;61.47;-17125.47;5036498;28;20092;-71
2023/06/27 08:45:57;;;;;;;5.90;1.48;;;;;;;-148.88;63.14;-17125.47;5054501;28;20398;-71
2023/06/27 08:48:23;;;;;;;8.55;1.70;;;;;;;-148.88;61.46;-17125.47;5037109;28;20112;-72
2023/06/27 08:50:53;;;;;;;4.60;1.60;;;;;;;-148.88;61.53;-17125.47;5053632;28;20027;-73
2023/06/27 08:53:21;;;;;;;4.70;1.60;;;;;;;-148.88;60.26;-17125.47;5054024;28;20029;-73
2023/06/27 08:55:56;;;;;;;6.00;1.88;;;;;;;-148.88;60.49;-17125.47;5036103;28;20032;-73
2023/06/27 08:58:27;;;;;;;6.82;1.50;;;;;;;-148.88;61.10;-17125.47;5053961;28;20075;-72
2023/06/27 09:00:53;;;;;;;5.00;1.63;;;;;;;-148.88;58.95;-17125.47;5053827;28;20020;-73
2023/06/27 09:03:19;;;;;;;6.80;1.45;;;;;;;-148.88;57.89;-17125.47;5053597;28;20036;-73
2023/06/27 09:05:47;;;;;;;4.95;1.83;;;;;;;-148.88;59.65;-17125.47;5053775;28;20032;-73
2023/06/27 09:08:13;;;;;;;5.38;1.70;;;;;;;-148.88;58.67;-17125.47;5053633;28;20029;-73
2023/06/27 09:10:39;;;;;;;5.68;1.70;;;;;;;-148.88;58.80;-17125.47;5053610;28;20025;-73
2023/06/27 09:13:06;;;;;;;3.47;1.50;;;;;;;-148.88;59.46;-17125.47;5035709;28;20024;-73
2023/06/27 09:15:31;;;;;;;4.50;1.70;;;;;;;-148.88;56.83;-17125.47;5053982;28;20021;-74
2023/06/27 09:17:57;;;;;;;3.72;1.60;;;;;;;-148.88;56.63;-17125.47;5053641;28;20017;-73
2023/06/27 09:20:23;;;;;;;4.55;1.80;;;;;;;-148.88;56.81;-17125.47;5053883;28;20052;-73
2023/06/27 09:22:50;;;;;;;4.55;1.95;;;;;;;-148.88;56.48;-17125.47;5054419;28;20056;-73
2023/06/27 09:25:20;;;;;;;6.35;1.80;;;;;;;-148.88;56.62;-17125.47;5057611;28;20028;-73
2023/06/27 09:27:47;;;;;;;6.55;1.83;;;;;;;-148.88;56.70;-17125.47;5054292;28;20486;-73
2023/06/27 09:30:12;;;;;;;6.88;2.10;;;;;;;-148.88;58.45;-17125.47;5035909;28;20048;-73
2023/06/27 09:32:57;;;;;;;6.70;2.38;;;;;;;-148.88;59.48;-17125.47;5053677;28;20082;-73
2023/06/27 09:35:26;;;;;;;4.63;1.88;;;;;;;-148.88;62.03;-17125.47;5053411;28;20021;-73
2023/06/27 09:37:53;;;;;;;6.18;1.80;;;;;;;-148.88;61.76;-17125.47;5035401;28;20098;-73
2023/06/27 09:40:25;;;;;;;4.93;1.90;;;;;;;-148.88;60.36;-17125.47;5053343;28;20109;-73
2023/06/27 09:42:54;;;;;;;7.35;1.70;;;;;;;-148.88;57.15;-17125.47;5035183;28;20135;-73
2023/06/27 09:45:20;;;;;;;4.85;1.73;;;;;;;-148.88;56.19;-17125.47;5052995;28;20029;-73
2023/06/27 09:47:50;;;;;;;4.70;1.52;;;;;;;-148.88;56.51;-17125.47;5053205;28;20020;-73
2023/06/27 09:50:15;;;;;;;4.75;1.65;;;;;;;-148.88;56.47;-17125.47;5035304;28;20045;-73
2023/06/27 09:52:48;;;;;;;10.30;2.00;;;;;;;-148.88;54.72;-17125.47;5053050;28;20525;-73
2023/06/27 09:55:20;;;;;;;8.27;1.63;;;;;;;-148.88;56.80;-17125.47;5053688;28;20029;-73
2023/06/27 09:57:46;;;;;;;4.13;1.67;;;;;;;-148.88;57.23;-17125.47;5053490;28;20118;-74
2023/06/27 10:00:12;;;;;;;3.90;1.80;;;;;;;-148.88;58.70;-17125.47;5053679;28;20418;-73
2023/06/27 10:02:37;;;;;;;4.18;1.90;;;;;;;-148.88;59.99;-17125.47;5039269;28;20036;-73
2023/06/27 10:05:03;;;;;;;4.32;1.60;;;;;;;-148.88;56.35;-17125.47;5057664;28;20067;-73
2023/06/27 10:07:32;;;;;;;5.20;1.73;;;;;;;-148.88;55.95;-17125.47;5057371;28;20056;-73
2023/06/27 10:09:58;;;;;;;5.50;1.50;;;;;;;-148.88;51.89;-17125.47;5057314;28;20028;-73
2023/06/27 10:12:24;;;;;;;7.32;1.88;;;;;;;-148.88;53.04;-17125.47;5057361;28;20020;-73
2023/06/27 10:14:50;;;;;;;5.70;1.85;;;;;;;-148.88;52.91;-17125.47;5057233;28;20534;-73
2023/06/27 10:17:19;;;;;;;4.00;1.65;;;;;;;-148.88;54.58;-17125.47;5039030;28;20119;-73
2023/06/27 10:19:45;;;;;;;6.32;1.90;;;;;;;-148.88;53.76;-17125.47;5056674;28;20494;-73
2023/06/27 10:22:14;;;;;;;5.20;1.88;;;;;;;-148.88;54.54;-17125.47;5056629;28;20033;-70
2023/06/27 10:24:42;;;;;;;8.25;1.92;;;;;;;-148.88;55.53;-17125.47;5056728;28;20025;-70
2023/06/27 10:27:12;;;;;;;3.90;1.65;;;;;;;-148.88;56.64;-17125.47;5056808;28;20056;-70
2023/06/27 10:29:41;;;;;;;4.40;1.45;;;;;;;-148.88;57.48;-17125.47;5056932;28;20048;-70
2023/06/27 10:32:11;;;;;;;3.88;1.50;;;;;;;-148.88;56.85;-17125.47;5057035;28;20017;-70
2023/06/27 10:34:41;;;;;;;3.80;1.60;;;;;;;-148.88;56.45;-17125.47;5057311;28;20100;-70
2023/06/27 10:37:20;;;;;;;6.22;1.70;;;;;;;-148.88;54.69;-17125.47;5057586;28;20066;-70
2023/06/27 10:39:56;;;;;;;4.63;1.48;;;;;;;-148.88;57.99;-17125.47;5057565;28;20017;-71
2023/06/27 10:42:21;;;;;;;6.60;1.70;;;;;;;-148.88;57.73;-17125.47;5056866;28;20087;-70
2023/06/27 10:45:05;;;;;;;8.13;2.20;;;;;;;-148.88;58.62;-17125.47;5056583;28;20029;-71
2023/06/27 10:47:35;;;;;;;4.03;1.50;;;;;;;-148.88;54.92;-17125.47;5056629;28;20071;-71
2023/06/27 10:50:04;;;;;;;4.45;1.80;;;;;;;-148.88;53.69;-17125.47;5056664;28;20017;-71
2023/06/27 10:52:29;;;;;;;4.60;1.90;;;;;;;-148.88;50.94;-17125.47;5056295;28;20495;-71
2023/06/27 10:55:15;;;;;;;4.85;1.60;;;;;;;-148.88;48.42;-17125.47;5056169;28;20143;-71
2023/06/27 10:57:58;;;;;;;4.45;1.85;;;;;;;-148.88;49.49;-17125.47;5056330;28;20414;-70
2023/06/27 11:00:28;;;;;;;6.18;1.80;;;;;;;-148.88;50.24;-17125.47;5056111;28;20020;-71
2023/06/27 11:02:56;;;;;;;5.47;1.60;;;;;;;-148.88;49.35;-17125.47;5056184;28;20542;-70
2023/06/27 11:05:57;;;;;;;5.25;1.65;;;;;;;-148.88;48.92;-17125.47;5038334;28;20039;-70
2023/06/27 11:08:27;;;;;;;4.63;1.50;;;;;;;-148.88;47.08;-17125.47;5038497;28;20036;-70
2023/06/27 11:10:58;;;;;;;4.80;1.50;;;;;;;-148.88;48.70;-17125.47;5056265;28;20028;-70